Time;durP1;ratioP1;P1;durP2;ratioP2;P2;SDS_P1;SDS_P2;PMS_P1;PMS_P2;Temp;Humidity;BMP_temperature;BMP_pressure;BME280_temperature;BME280_humidity;BME280_pressure;Samples;Min_cycle;Max_cycle;Signal;HPM_P1;HPM_P2
2023/04/16 00:00:51;;;;;;;8.88;5.10;;;11.40;99.90;;;;;;5048271;28;20048;-74
2023/04/16 00:03:17;;;;;;;8.50;5.22;;;11.50;99.90;;;;;;5049427;28;20035;-74
2023/04/16 00:05:43;;;;;;;8.15;5.20;;;11.60;99.90;;;;;;5051683;28;20025;-74
2023/04/16 00:08:09;;;;;;;8.80;4.93;;;11.60;99.90;;;;;;5047468;28;20028;-74
2023/04/16 00:10:35;;;;;;;7.35;5.00;;;11.60;99.90;;;;;;5051425;28;20025;-74
2023/04/16 00:13:01;;;;;;;12.13;5.45;;;11.60;99.90;;;;;;5050762;28;20041;-74
2023/04/16 00:15:28;;;;;;;10.90;5.78;;;11.60;99.90;;;;;;5050915;28;20048;-74
2023/04/16 00:17:54;;;;;;;9.98;5.60;;;11.60;99.90;;;;;;5052261;28;20029;-74
2023/04/16 00:20:20;;;;;;;13.63;5.82;;;11.60;99.90;;;;;;5051270;28;20055;-74
2023/04/16 00:22:46;;;;;;;9.85;5.68;;;11.60;99.90;;;;;;5032952;28;20052;-74
2023/04/16 00:25:12;;;;;;;8.27;5.88;;;11.60;99.90;;;;;;5051506;28;20464;-74
2023/04/16 00:27:39;;;;;;;9.27;5.93;;;11.70;99.90;;;;;;5049849;28;20064;-74
2023/04/16 00:30:06;;;;;;;11.25;5.65;;;11.60;99.90;;;;;;5049559;28;20032;-73
2023/04/16 00:32:32;;;;;;;9.73;5.60;;;11.60;99.90;;;;;;5050848;28;20029;-74
2023/04/16 00:34:58;;;;;;;7.68;5.65;;;11.60;99.90;;;;;;5049979;28;20032;-74
2023/04/16 00:37:24;;;;;;;7.25;5.55;;;11.60;99.90;;;;;;5049094;28;20055;-74
2023/04/16 00:39:50;;;;;;;9.50;5.60;;;11.70;99.90;;;;;;5049905;28;20466;-74
2023/04/16 00:42:17;;;;;;;7.03;5.53;;;11.70;99.90;;;;;;5049657;28;20049;-74
2023/04/16 00:44:43;;;;;;;9.60;5.47;;;11.70;99.90;;;;;;5053756;28;20052;-74
2023/04/16 00:47:09;;;;;;;8.13;6.03;;;11.70;99.90;;;;;;5054320;28;20036;-74
2023/04/16 00:49:35;;;;;;;7.05;5.85;;;11.70;99.90;;;;;;5053953;28;20402;-74
2023/04/16 00:52:02;;;;;;;8.02;5.40;;;11.70;99.90;;;;;;5053000;28;20057;-74
2023/04/16 00:54:28;;;;;;;8.23;5.60;;;11.70;99.90;;;;;;5052803;28;20029;-74
2023/04/16 00:56:55;;;;;;;10.07;6.13;;;11.80;99.90;;;;;;5052727;28;20033;-74
2023/04/16 00:59:21;;;;;;;7.85;5.40;;;11.70;99.90;;;;;;5053825;28;20029;-74
2023/04/16 01:01:47;;;;;;;9.75;6.00;;;11.70;99.90;;;;;;5036364;28;20072;-74
2023/04/16 01:04:13;;;;;;;7.90;5.68;;;11.70;99.90;;;;;;5053605;28;20387;-73
2023/04/16 01:06:39;;;;;;;11.20;6.00;;;11.70;99.90;;;;;;5036845;28;20063;-74
2023/04/16 01:09:06;;;;;;;11.63;6.55;;;11.70;99.90;;;;;;5053314;28;20043;-74
2023/04/16 01:11:32;;;;;;;11.35;6.03;;;11.70;99.90;;;;;;5054296;28;20087;-74
2023/04/16 01:13:58;;;;;;;11.13;6.32;;;11.70;99.90;;;;;;5053578;28;20025;-73
2023/04/16 01:16:25;;;;;;;10.57;6.38;;;11.70;99.90;;;;;;5054166;28;20048;-73
2023/04/16 01:18:51;;;;;;;7.35;5.53;;;11.60;99.90;;;;;;5054395;28;20036;-74
2023/04/16 01:21:17;;;;;;;10.38;6.20;;;11.50;99.90;;;;;;5053169;28;20045;-73
2023/04/16 01:23:43;;;;;;;10.55;5.82;;;11.40;99.90;;;;;;5053744;28;20029;-74
2023/04/16 01:26:10;;;;;;;8.82;5.35;;;11.40;99.90;;;;;;5054172;28;20024;-73
2023/04/16 01:28:36;;;;;;;8.88;6.00;;;11.40;99.90;;;;;;5055385;28;20040;-73
2023/04/16 01:31:02;;;;;;;8.88;5.95;;;11.40;99.90;;;;;;5052705;28;20041;-73
2023/04/16 01:33:28;;;;;;;12.48;6.50;;;11.40;99.90;;;;;;5055159;28;20044;-74
2023/04/16 01:35:54;;;;;;;12.02;5.88;;;11.40;99.90;;;;;;5052066;28;20039;-73
2023/04/16 01:38:20;;;;;;;7.18;5.95;;;11.40;99.90;;;;;;5054692;28;20045;-74
2023/04/16 01:40:46;;;;;;;12.15;6.13;;;11.40;99.90;;;;;;5052387;28;20041;-74
2023/04/16 01:43:12;;;;;;;9.45;6.05;;;11.40;99.90;;;;;;5053684;28;20033;-73
2023/04/16 01:45:38;;;;;;;10.48;6.15;;;11.30;99.90;;;;;;5052030;28;20395;-74
2023/04/16 01:48:05;;;;;;;13.02;6.00;;;11.30;99.90;;;;;;5052227;28;20029;-74
2023/04/16 01:50:31;;;;;;;8.30;5.88;;;11.30;99.90;;;;;;5054060;28;20037;-73
2023/04/16 01:52:57;;;;;;;10.32;5.90;;;11.30;99.90;;;;;;5053111;28;20051;-73
2023/04/16 01:55:23;;;;;;;8.55;6.07;;;11.30;99.90;;;;;;5052244;28;20033;-73
2023/04/16 01:57:49;;;;;;;8.35;5.80;;;11.30;99.90;;;;;;5051961;28;20406;-73
2023/04/16 02:00:15;;;;;;;11.15;6.15;;;11.30;99.90;;;;;;5050440;28;20026;-73
2023/04/16 02:02:42;;;;;;;8.23;6.10;;;11.20;99.90;;;;;;5049946;28;20045;-73
2023/04/16 02:05:08;;;;;;;10.75;5.68;;;11.10;99.90;;;;;;5032502;28;20029;-72
2023/04/16 02:07:34;;;;;;;9.02;5.53;;;11.10;99.90;;;;;;5048871;28;20498;-74
2023/04/16 02:10:00;;;;;;;8.65;5.82;;;11.10;99.90;;;;;;5033735;28;20036;-74
2023/04/16 02:12:26;;;;;;;7.55;6.10;;;11.10;99.90;;;;;;5052777;28;20400;-74
2023/04/16 02:14:52;;;;;;;9.88;6.03;;;11.10;99.90;;;;;;5034590;28;20052;-74
2023/04/16 02:17:18;;;;;;;12.60;6.65;;;11.10;99.90;;;;;;5066316;28;20048;-74
2023/04/16 02:19:45;;;;;;;12.10;6.25;;;11.10;99.90;;;;;;5051934;28;20036;-74
2023/04/16 02:22:11;;;;;;;10.93;6.28;;;11.10;99.90;;;;;;5051685;28;20048;-74
2023/04/16 02:24:37;;;;;;;6.90;5.93;;;11.10;99.90;;;;;;5051849;28;20495;-74
2023/04/16 02:27:03;;;;;;;11.13;5.82;;;11.00;99.90;;;;;;5049778;28;20051;-74
2023/04/16 02:29:30;;;;;;;9.30;5.85;;;11.00;99.90;;;;;;5051925;28;20025;-74
2023/04/16 02:31:58;;;;;;;8.63;5.95;;;10.90;99.90;;;;;;5050583;28;20487;-74
2023/04/16 02:34:24;;;;;;;11.02;6.40;;;10.90;99.90;;;;;;5050470;28;20052;-74
2023/04/16 02:36:50;;;;;;;7.60;6.20;;;10.90;99.90;;;;;;5052364;28;20040;-74
2023/04/16 02:39:16;;;;;;;9.57;6.60;;;10.90;99.90;;;;;;5053277;28;20024;-73
2023/04/16 02:41:42;;;;;;;11.73;6.78;;;10.90;99.90;;;;;;5053190;28;20049;-73
2023/04/16 02:44:08;;;;;;;8.13;6.32;;;10.90;99.90;;;;;;5053022;28;20383;-73
2023/04/16 02:46:34;;;;;;;9.73;6.45;;;10.90;99.90;;;;;;5051233;28;20048;-73
2023/04/16 02:49:01;;;;;;;9.85;6.20;;;10.90;99.90;;;;;;5051924;28;20487;-73
2023/04/16 02:51:27;;;;;;;8.02;6.43;;;10.90;99.90;;;;;;5051652;28;20056;-74
2023/04/16 02:53:54;;;;;;;15.00;6.75;;;10.90;99.90;;;;;;5051714;28;20029;-73
2023/04/16 02:56:20;;;;;;;7.93;6.60;;;10.90;99.90;;;;;;5050545;28;20035;-74
2023/04/16 02:58:46;;;;;;;12.18;7.00;;;10.90;99.90;;;;;;5052879;28;20032;-73
2023/04/16 03:01:12;;;;;;;13.23;6.95;;;10.90;99.90;;;;;;5050538;28;20040;-73
2023/04/16 03:03:38;;;;;;;11.88;7.18;;;10.90;99.90;;;;;;5051058;28;20041;-74
2023/04/16 03:06:04;;;;;;;8.00;6.53;;;10.90;99.90;;;;;;5051696;28;20029;-73
2023/04/16 03:08:30;;;;;;;10.70;6.90;;;10.90;99.90;;;;;;5052258;28;20047;-73
2023/04/16 03:10:57;;;;;;;11.90;7.05;;;10.80;99.90;;;;;;5048032;28;20033;-73
2023/04/16 03:13:23;;;;;;;10.20;7.60;;;10.80;99.90;;;;;;5051470;28;20025;-73
2023/04/16 03:15:49;;;;;;;12.07;7.65;;;10.80;99.90;;;;;;5049590;28;20483;-73
2023/04/16 03:18:15;;;;;;;10.52;7.43;;;10.70;99.90;;;;;;5051100;28;20025;-73
2023/04/16 03:20:41;;;;;;;10.45;7.00;;;10.70;99.90;;;;;;5051103;28;20096;-73
2023/04/16 03:23:07;;;;;;;11.68;7.13;;;10.70;99.90;;;;;;5051944;28;20025;-73
2023/04/16 03:25:33;;;;;;;7.90;7.10;;;10.70;99.90;;;;;;5050933;28;20032;-73
2023/04/16 03:27:59;;;;;;;11.55;7.70;;;10.70;99.90;;;;;;5052050;28;20025;-73
2023/04/16 03:30:25;;;;;;;14.05;10.45;;;10.70;99.90;;;;;;5050698;28;20039;-73
2023/04/16 03:32:52;;;;;;;14.82;9.55;;;10.70;99.90;;;;;;5052867;28;20386;-73
2023/04/16 03:35:18;;;;;;;12.27;9.52;;;10.70;99.90;;;;;;5051723;28;20032;-73
2023/04/16 03:37:44;;;;;;;14.13;9.70;;;10.70;99.90;;;;;;5050135;28;20332;-73
2023/04/16 03:40:10;;;;;;;13.77;9.27;;;10.70;99.90;;;;;;5034226;28;20048;-73
2023/04/16 03:42:36;;;;;;;10.43;8.18;;;10.70;99.90;;;;;;5052632;28;20048;-73
2023/04/16 03:45:03;;;;;;;11.45;8.10;;;10.70;99.90;;;;;;5050295;28;20029;-73
2023/04/16 03:47:29;;;;;;;8.70;7.80;;;10.70;99.90;;;;;;5051834;28;20040;-73
2023/04/16 03:49:55;;;;;;;10.73;8.43;;;10.70;99.90;;;;;;5049411;28;20029;-73
2023/04/16 03:52:21;;;;;;;10.18;7.78;;;10.70;99.90;;;;;;5051163;28;20056;-73
2023/04/16 03:54:47;;;;;;;9.95;8.27;;;10.70;99.90;;;;;;5052448;28;20025;-73
2023/04/16 03:57:13;;;;;;;9.10;7.70;;;10.70;99.90;;;;;;5050647;28;20048;-73
2023/04/16 03:59:39;;;;;;;13.10;7.93;;;10.60;99.90;;;;;;5051630;28;20033;-73
2023/04/16 04:02:05;;;;;;;12.52;9.20;;;10.50;99.90;;;;;;5048268;28;20071;-73
2023/04/16 04:04:31;;;;;;;16.52;9.45;;;10.40;99.90;;;;;;5049989;28;20032;-73
2023/04/16 04:06:57;;;;;;;13.70;9.57;;;10.10;99.90;;;;;;5050221;28;20045;-73
2023/04/16 04:09:23;;;;;;;13.27;9.05;;;9.90;99.90;;;;;;5052205;28;20036;-74
2023/04/16 04:11:50;;;;;;;11.32;9.57;;;9.90;99.90;;;;;;5049916;28;20399;-73
2023/04/16 04:14:16;;;;;;;12.45;9.27;;;10.10;99.90;;;;;;5052342;28;20025;-73
2023/04/16 04:16:42;;;;;;;14.63;9.90;;;10.20;99.90;;;;;;5050613;28;20040;-73
2023/04/16 04:19:08;;;;;;;14.35;9.13;;;10.30;99.90;;;;;;5050235;28;20044;-73
2023/04/16 04:21:34;;;;;;;14.38;10.57;;;10.30;99.90;;;;;;5048268;28;20468;-73
2023/04/16 04:24:00;;;;;;;14.70;9.98;;;10.20;99.90;;;;;;5051332;28;20044;-73
2023/04/16 04:26:26;;;;;;;14.75;10.65;;;10.10;99.90;;;;;;5050056;28;20040;-73
2023/04/16 04:28:52;;;;;;;12.20;9.93;;;10.10;99.90;;;;;;5052211;28;20029;-73
2023/04/16 04:31:18;;;;;;;13.95;9.75;;;10.10;99.90;;;;;;5049707;28;20033;-74
2023/04/16 04:33:45;;;;;;;14.68;9.60;;;10.20;99.90;;;;;;5048270;28;20033;-73
2023/04/16 04:36:11;;;;;;;908.33;60.10;;;10.30;99.90;;;;;;5051025;28;20033;-73
2023/04/16 04:38:37;;;;;;;213.68;17.90;;;10.40;99.90;;;;;;5050013;28;20491;-73
2023/04/16 04:41:03;;;;;;;223.90;19.10;;;10.40;99.90;;;;;;5050150;28;20033;-73
2023/04/16 04:43:29;;;;;;;16.10;10.32;;;10.50;99.90;;;;;;5050997;28;20044;-74
2023/04/16 04:45:55;;;;;;;38.22;11.48;;;10.40;99.90;;;;;;5050760;28;20510;-73
2023/04/16 04:48:25;;;;;;;12.43;9.85;;;10.40;99.90;;;;;;5049541;28;20029;-73
2023/04/16 04:50:52;;;;;;;13.75;9.88;;;10.40;99.90;;;;;;5050846;28;20041;-73
2023/04/16 04:53:18;;;;;;;13.20;9.75;;;10.40;99.90;;;;;;5048322;28;20045;-73
2023/04/16 04:55:44;;;;;;;12.27;8.95;;;10.40;99.90;;;;;;5049002;28;20391;-73
2023/04/16 04:58:10;;;;;;;9.43;8.43;;;10.50;99.90;;;;;;5030548;28;20048;-73
2023/04/16 05:00:36;;;;;;;10.32;8.60;;;10.50;99.90;;;;;;5064970;28;20035;-73
2023/04/16 05:03:04;;;;;;;13.57;8.68;;;10.50;99.90;;;;;;5047388;28;20037;-74
2023/04/16 05:05:30;;;;;;;12.38;9.00;;;10.40;99.90;;;;;;5049515;28;20040;-73
2023/04/16 05:07:56;;;;;;;12.32;8.85;;;10.30;99.90;;;;;;5049334;28;20036;-73
2023/04/16 05:10:22;;;;;;;12.30;9.25;;;10.20;99.90;;;;;;5050421;28;20029;-73
2023/04/16 05:12:48;;;;;;;320.10;29.52;;;10.20;99.90;;;;;;5050246;28;20288;-73
2023/04/16 05:15:15;;;;;;;16.35;8.57;;;10.20;99.90;;;;;;5051093;28;20029;-73
2023/04/16 05:17:41;;;;;;;17.30;8.98;;;10.30;99.90;;;;;;5051050;28;20029;-74
2023/04/16 05:20:08;;;;;;;12.35;9.27;;;10.30;99.90;;;;;;5051272;28;20036;-73
2023/04/16 05:22:34;;;;;;;11.10;9.10;;;10.20;99.90;;;;;;5031888;28;20099;-73
2023/04/16 05:25:00;;;;;;;12.05;8.88;;;10.20;99.90;;;;;;5051525;28;20025;-73
2023/04/16 05:27:26;;;;;;;13.55;9.35;;;10.10;99.90;;;;;;5051391;28;20021;-73
2023/04/16 05:29:52;;;;;;;10.07;8.40;;;10.10;99.90;;;;;;5052882;28;20379;-73
2023/04/16 05:32:19;;;;;;;11.88;8.40;;;10.10;99.90;;;;;;5053646;28;20030;-73
2023/04/16 05:34:45;;;;;;;13.63;8.68;;;10.10;99.90;;;;;;5055056;28;20459;-73
2023/04/16 05:37:11;;;;;;;11.43;9.20;;;10.20;99.90;;;;;;5054062;28;20041;-73
2023/04/16 05:39:37;;;;;;;11.18;8.90;;;10.20;99.90;;;;;;5054329;28;20459;-73
2023/04/16 05:42:03;;;;;;;14.13;8.90;;;10.10;99.90;;;;;;5053403;28;20033;-73
2023/04/16 05:44:29;;;;;;;13.50;8.65;;;10.10;99.90;;;;;;5054231;28;20032;-73
2023/04/16 05:46:55;;;;;;;11.98;8.98;;;10.00;99.90;;;;;;5054299;28;20037;-73
2023/04/16 05:49:21;;;;;;;12.50;9.30;;;10.00;99.90;;;;;;5054696;28;20497;-73
2023/04/16 05:51:48;;;;;;;20.17;10.00;;;10.00;99.90;;;;;;5053187;28;20049;-73
2023/04/16 05:54:14;;;;;;;12.55;9.07;;;10.10;99.90;;;;;;5053020;28;20040;-74
2023/04/16 05:56:41;;;;;;;12.32;9.75;;;10.10;99.90;;;;;;5054698;28;20053;-73
2023/04/16 05:59:07;;;;;;;12.40;10.00;;;10.10;99.90;;;;;;5054283;28;20043;-73
2023/04/16 06:01:33;;;;;;;12.93;10.13;;;10.10;99.90;;;;;;5053748;28;20029;-73
2023/04/16 06:03:59;;;;;;;11.20;9.32;;;10.10;99.90;;;;;;5054380;28;20471;-74
2023/04/16 06:06:26;;;;;;;13.73;9.57;;;10.00;99.90;;;;;;5053153;28;20033;-74
2023/04/16 06:08:52;;;;;;;11.60;10.20;;;10.10;99.90;;;;;;5052915;28;20036;-74
2023/04/16 06:11:18;;;;;;;13.90;9.63;;;10.00;99.90;;;;;;5053173;28;20033;-73
2023/04/16 06:13:45;;;;;;;14.52;10.35;;;9.90;99.90;;;;;;5053758;28;20033;-73
2023/04/16 06:16:11;;;;;;;15.38;10.20;;;9.80;99.90;;;;;;5051825;28;20064;-73
2023/04/16 06:18:37;;;;;;;15.05;10.48;;;9.90;99.90;;;;;;5053432;28;20033;-75
2023/04/16 06:21:03;;;;;;;13.95;11.13;;;10.00;99.90;;;;;;5036596;28;20032;-74
2023/04/16 06:23:29;;;;;;;13.98;9.93;;;9.90;99.90;;;;;;5051539;28;20052;-74
2023/04/16 06:25:55;;;;;;;12.93;10.40;;;9.90;99.90;;;;;;5052801;28;20029;-73
2023/04/16 06:28:21;;;;;;;13.70;10.60;;;10.00;99.90;;;;;;5053629;28;20037;-74
2023/04/16 06:30:47;;;;;;;14.63;10.55;;;10.10;99.90;;;;;;5050298;28;20044;-73
2023/04/16 06:33:14;;;;;;;13.77;10.13;;;10.00;99.90;;;;;;5050406;28;20044;-73
2023/04/16 06:35:40;;;;;;;16.95;10.60;;;9.90;99.90;;;;;;5052436;28;20036;-74
2023/04/16 06:38:06;;;;;;;14.93;10.82;;;9.90;99.90;;;;;;5052761;28;20040;-73
2023/04/16 06:40:32;;;;;;;14.45;11.07;;;9.80;99.90;;;;;;5051935;28;20029;-73
2023/04/16 06:42:58;;;;;;;14.30;10.23;;;9.70;99.90;;;;;;5051156;28;20483;-74
2023/04/16 06:45:24;;;;;;;12.50;10.68;;;9.90;99.90;;;;;;5048862;28;20040;-74
2023/04/16 06:47:51;;;;;;;14.38;11.30;;;10.00;99.90;;;;;;5036312;28;20045;-74
2023/04/16 06:50:17;;;;;;;14.80;11.18;;;10.10;99.90;;;;;;5038135;28;20048;-74
2023/04/16 06:52:43;;;;;;;31.13;11.57;;;10.10;99.90;;;;;;5052474;28;20049;-74
2023/04/16 06:55:09;;;;;;;15.00;10.60;;;10.10;99.90;;;;;;5052394;28;20041;-73
2023/04/16 06:57:35;;;;;;;14.57;10.38;;;10.20;99.90;;;;;;5059165;28;20045;-74
2023/04/16 07:00:03;;;;;;;11.65;10.43;;;10.30;99.90;;;;;;5033536;28;20040;-73
2023/04/16 07:02:30;;;;;;;14.40;10.95;;;10.30;99.90;;;;;;5031647;28;20045;-74
2023/04/16 07:04:56;;;;;;;13.68;11.30;;;10.30;99.90;;;;;;5039440;28;20096;-74
2023/04/16 07:07:22;;;;;;;14.27;9.57;;;10.40;99.90;;;;;;5052493;28;20041;-74
2023/04/16 07:09:48;;;;;;;12.02;9.65;;;10.70;99.90;;;;;;5051070;28;20029;-74
2023/04/16 07:12:14;;;;;;;12.23;9.43;;;11.00;99.90;;;;;;5052903;28;20378;-74
2023/04/16 07:14:40;;;;;;;14.05;9.73;;;11.30;99.90;;;;;;5052135;28;20487;-74
2023/04/16 07:17:07;;;;;;;10.70;9.52;;;11.60;99.90;;;;;;5052692;28;20048;-74
2023/04/16 07:19:33;;;;;;;13.80;10.88;;;12.00;99.90;;;;;;5052595;28;20025;-74
2023/04/16 07:21:59;;;;;;;13.65;10.55;;;12.00;99.90;;;;;;5052692;28;20029;-75
2023/04/16 07:24:25;;;;;;;12.70;10.82;;;12.00;99.90;;;;;;5048126;28;20025;-74
2023/04/16 07:26:51;;;;;;;13.13;11.73;;;12.10;99.90;;;;;;5050559;28;20040;-74
2023/04/16 07:29:17;;;;;;;16.83;13.65;;;12.00;99.90;;;;;;5051491;28;20044;-74
2023/04/16 07:31:44;;;;;;;15.38;13.50;;;12.20;99.90;;;;;;5050279;28;20037;-74
2023/04/16 07:34:10;;;;;;;14.65;12.02;;;12.20;99.90;;;;;;5051700;28;20029;-74
2023/04/16 07:36:36;;;;;;;17.25;12.50;;;12.30;99.90;;;;;;5051623;28;20468;-74
2023/04/16 07:39:03;;;;;;;18.35;12.68;;;12.30;99.90;;;;;;5051066;28;20029;-74
2023/04/16 07:41:30;;;;;;;15.55;12.98;;;12.40;99.90;;;;;;5051322;28;20024;-74
2023/04/16 07:43:56;;;;;;;15.38;12.48;;;12.40;99.90;;;;;;5052644;28;20365;-74
2023/04/16 07:46:22;;;;;;;14.68;12.38;;;12.50;99.90;;;;;;5049410;28;20047;-74
2023/04/16 07:48:48;;;;;;;14.30;11.75;;;12.50;99.90;;;;;;5051869;28;20040;-74
2023/04/16 07:51:15;;;;;;;15.32;12.23;;;12.80;99.90;;;;;;5051809;28;20040;-74
2023/04/16 07:53:42;;;;;;;15.02;12.40;;;12.80;99.90;;;;;;5049540;28;20479;-74
2023/04/16 07:56:08;;;;;;;17.60;12.60;;;12.80;99.90;;;;;;5051023;28;20028;-75
2023/04/16 07:58:34;;;;;;;15.93;12.63;;;12.80;99.90;;;;;;5034100;28;20032;-74
2023/04/16 08:01:00;;;;;;;16.38;13.02;;;12.90;99.90;;;;;;5048462;28;20048;-75
2023/04/16 08:03:27;;;;;;;17.02;12.88;;;13.00;99.90;;;;;;5050695;28;20033;-73
2023/04/16 08:05:53;;;;;;;15.02;12.73;;;13.10;99.90;;;;;;5049869;28;20387;-80
2023/04/16 08:08:19;;;;;;;16.98;13.48;;;13.10;99.90;;;;;;5051885;28;20032;-70
2023/04/16 08:10:45;;;;;;;16.33;11.70;;;13.10;99.90;;;;;;5050020;28;20422;-74
2023/04/16 08:13:11;;;;;;;14.07;11.38;;;13.30;99.90;;;;;;5048867;28;20041;-75
2023/04/16 08:15:37;;;;;;;14.35;12.07;;;13.40;99.90;;;;;;5039017;28;20037;-75
2023/04/16 08:18:04;;;;;;;14.85;11.40;;;13.60;99.90;;;;;;5051044;28;20032;-71
2023/04/16 08:20:30;;;;;;;13.85;11.80;;;13.90;99.90;;;;;;5050483;28;20032;-72
2023/04/16 08:22:56;;;;;;;15.23;12.38;;;13.90;99.90;;;;;;5033676;28;20067;-73
2023/04/16 08:25:23;;;;;;;14.57;11.27;;;14.10;99.90;;;;;;5048541;28;20021;-73
2023/04/16 08:27:49;;;;;;;12.80;11.48;;;14.30;99.90;;;;;;5033360;28;20037;-72
2023/04/16 08:30:16;;;;;;;13.13;11.60;;;14.50;99.90;;;;;;5049506;28;20049;-72
2023/04/16 08:32:42;;;;;;;12.55;10.85;;;14.70;99.90;;;;;;5033301;28;20033;-72
2023/04/16 08:35:08;;;;;;;12.77;11.23;;;14.80;99.90;;;;;;5032087;28;20056;-73
2023/04/16 08:37:34;;;;;;;12.25;10.63;;;15.10;99.90;;;;;;5036153;28;20065;-73
2023/04/16 08:40:02;;;;;;;11.32;9.93;;;15.50;99.90;;;;;;5050456;28;20048;-73
2023/04/16 08:42:30;;;;;;;13.77;9.85;;;15.50;99.90;;;;;;5047072;28;21014;-73
2023/04/16 08:45:16;;;;;;;12.07;10.57;;;15.60;99.90;;;;;;5028796;28;20048;-73
2023/04/16 08:47:49;;;;;;;12.25;10.38;;;15.70;99.90;;;;;;5027956;28;20033;-73
2023/04/16 08:50:18;;;;;;;13.38;10.23;;;15.80;99.90;;;;;;5051638;28;20375;-73
2023/04/16 08:52:49;;;;;;;11.43;9.82;;;15.80;99.90;;;;;;5048416;28;20045;-74
2023/04/16 08:55:16;;;;;;;11.20;9.95;;;15.50;99.90;;;;;;5048565;28;20029;-74
2023/04/16 08:57:53;;;;;;;11.15;9.90;;;15.40;99.90;;;;;;5050270;28;20040;-74
2023/04/16 09:00:20;;;;;;;11.95;9.50;;;15.50;99.90;;;;;;5048629;28;20348;-74
2023/04/16 09:02:46;;;;;;;11.52;9.20;;;15.70;99.90;;;;;;5051167;28;20040;-74
2023/04/16 09:05:15;;;;;;;10.38;9.38;;;15.80;99.90;;;;;;5045396;28;20033;-73
2023/04/16 09:07:45;;;;;;;11.98;9.85;;;15.80;99.90;;;;;;5040281;28;20055;-74
2023/04/16 09:10:12;;;;;;;14.77;10.20;;;15.90;99.90;;;;;;5052545;28;20039;-74
2023/04/16 09:12:40;;;;;;;10.23;9.15;;;16.40;99.90;;;;;;5070200;28;20029;-74
2023/04/16 09:15:07;;;;;;;10.13;9.13;;;16.30;99.90;;;;;;5054897;28;20021;-74
2023/04/16 09:17:33;;;;;;;10.38;9.00;;;16.40;99.90;;;;;;5052522;28;20041;-74
2023/04/16 09:19:59;;;;;;;10.32;9.32;;;16.50;99.90;;;;;;5052896;28;20387;-71
2023/04/16 09:22:25;;;;;;;11.43;9.73;;;16.60;99.90;;;;;;5053367;28;20036;-73
2023/04/16 09:24:51;;;;;;;10.10;8.90;;;16.60;99.90;;;;;;5054536;28;20021;-73
2023/04/16 09:27:17;;;;;;;10.85;8.98;;;16.40;99.90;;;;;;5041764;28;20033;-74
2023/04/16 09:29:44;;;;;;;10.32;8.30;;;16.30;99.90;;;;;;5051348;28;20025;-74
2023/04/16 09:32:11;;;;;;;9.90;8.93;;;16.60;99.90;;;;;;5052155;28;20056;-74
2023/04/16 09:34:56;;;;;;;9.73;8.80;;;17.00;99.90;;;;;;5053618;28;20055;-73
2023/04/16 09:37:22;;;;;;;9.18;8.48;;;17.00;99.90;;;;;;5052833;28;20021;-74
2023/04/16 09:40:01;;;;;;;10.50;9.50;;;17.00;99.90;;;;;;5020756;28;20029;-74
2023/04/16 09:42:31;;;;;;;9.52;8.73;;;17.00;99.90;;;;;;5048649;28;20503;-74
2023/04/16 09:44:57;;;;;;;10.13;9.23;;;16.80;99.90;;;;;;5039280;28;20028;-74
2023/04/16 09:47:25;;;;;;;10.40;9.32;;;16.90;99.90;;;;;;5040547;28;20044;-74
2023/04/16 09:49:51;;;;;;;9.77;8.95;;;17.10;99.90;;;;;;5050374;28;20033;-73
2023/04/16 09:52:21;;;;;;;10.10;9.20;;;17.30;99.90;;;;;;5044655;28;20523;-74
2023/04/16 09:54:49;;;;;;;10.27;9.32;;;17.00;99.90;;;;;;5053846;28;20044;-74
2023/04/16 09:57:22;;;;;;;10.65;9.65;;;17.00;99.90;;;;;;5053012;28;20410;-73
2023/04/16 09:59:53;;;;;;;10.00;9.10;;;17.30;99.90;;;;;;5051985;28;20510;-73
2023/04/16 10:02:19;;;;;;;10.23;9.30;;;17.80;99.90;;;;;;5034720;28;20525;-73
2023/04/16 10:04:49;;;;;;;10.35;9.27;;;18.10;99.90;;;;;;5050366;28;20044;-73
2023/04/16 10:07:15;;;;;;;12.20;10.77;;;17.40;99.90;;;;;;5052517;28;20455;-73
2023/04/16 10:09:42;;;;;;;10.57;9.57;;;17.60;99.90;;;;;;5048559;28;20292;-74
2023/04/16 10:12:08;;;;;;;10.90;9.85;;;17.80;99.90;;;;;;5052451;28;20105;-73
2023/04/16 10:14:34;;;;;;;9.80;9.00;;;17.80;99.30;;;;;;5053447;28;20490;-73
2023/04/16 10:17:01;;;;;;;10.02;9.05;;;17.90;99.70;;;;;;5053360;28;20049;-73
2023/04/16 10:19:30;;;;;;;10.05;9.25;;;18.10;99.80;;;;;;5052121;28;20044;-74
2023/04/16 10:21:56;;;;;;;10.48;9.65;;;18.30;97.70;;;;;;5050116;28;20043;-74
2023/04/16 10:24:24;;;;;;;9.13;8.32;;;18.60;99.20;;;;;;5016253;28;20396;-74
2023/04/16 10:26:51;;;;;;;10.63;9.73;;;18.80;96.70;;;;;;5015717;28;20041;-73
2023/04/16 10:29:20;;;;;;;11.82;9.10;;;18.80;97.40;;;;;;5044380;28;20037;-74
2023/04/16 10:31:47;;;;;;;9.63;8.82;;;18.90;94.70;;;;;;5051710;28;20029;-74
2023/04/16 10:34:13;;;;;;;10.00;9.23;;;19.10;96.50;;;;;;5053509;28;20050;-73
2023/04/16 10:36:40;;;;;;;9.25;8.45;;;19.40;94.70;;;;;;5051374;28;20033;-74
2023/04/16 10:39:10;;;;;;;9.63;8.77;;;19.30;94.40;;;;;;5051890;28;20029;-74
2023/04/16 10:41:36;;;;;;;9.10;8.38;;;19.50;95.30;;;;;;5051378;28;20025;-73
2023/04/16 10:44:08;;;;;;;9.18;8.20;;;19.50;94.30;;;;;;5046858;28;20048;-74
2023/04/16 10:46:37;;;;;;;8.40;7.80;;;19.60;94.50;;;;;;5019337;28;20034;-74
2023/04/16 10:49:20;;;;;;;8.93;8.13;;;19.40;91.90;;;;;;5024114;28;20045;-74
2023/04/16 10:51:53;;;;;;;10.00;7.95;;;19.20;94.30;;;;;;5030459;28;20048;-74
2023/04/16 10:54:24;;;;;;;10.18;9.18;;;18.90;92.50;;;;;;5028324;28;20476;-73
2023/04/16 10:56:50;;;;;;;10.25;9.25;;;18.70;93.10;;;;;;5014108;28;20444;-74
2023/04/16 10:59:20;;;;;;;10.50;9.60;;;18.40;93.40;;;;;;5029337;28;20044;-70
2023/04/16 11:01:49;;;;;;;10.52;9.48;;;18.30;94.00;;;;;;5022713;28;20029;-74
2023/04/16 11:04:24;;;;;;;9.18;8.38;;;17.80;93.10;;;;;;5028783;28;20040;-74
2023/04/16 11:07:14;;;;;;;9.48;8.65;;;17.90;93.50;;;;;;5024924;28;20029;-76
2023/04/16 11:09:50;;;;;;;8.73;8.13;;;18.10;94.50;;;;;;5032335;28;20034;-73
2023/04/16 11:12:21;;;;;;;8.90;8.30;;;18.50;93.90;;;;;;5046018;28;20412;-74
2023/04/16 11:14:51;;;;;;;;;;;19.00;93.90;;;;;;5031928;28;20026;-74
2023/04/16 11:17:18;;;;;;;8.65;8.15;;;19.30;92.90;;;;;;5030130;28;19913;-74
2023/04/16 11:19:44;;;;;;;9.13;8.32;;;19.60;92.10;;;;;;5009469;28;20041;-74
2023/04/16 11:22:16;;;;;;;8.90;8.30;;;19.80;92.10;;;;;;5014265;28;20045;-74
2023/04/16 11:24:43;;;;;;;9.43;8.73;;;20.00;91.40;;;;;;5030398;28;20037;-74
2023/04/16 11:27:14;;;;;;;9.23;8.43;;;20.30;91.50;;;;;;5031509;28;20044;-74
2023/04/16 11:29:40;;;;;;;9.73;8.93;;;20.50;90.50;;;;;;5030584;28;20033;-74
2023/04/16 11:32:06;;;;;;;9.73;8.85;;;19.90;90.90;;;;;;5031323;28;20037;-75
2023/04/16 11:34:32;;;;;;;8.98;8.38;;;20.10;91.10;;;;;;5013824;28;20068;-74
2023/04/16 11:36:58;;;;;;;9.15;8.35;;;20.20;89.80;;;;;;5031194;28;20029;-74
2023/04/16 11:39:24;;;;;;;10.52;8.30;;;19.90;90.40;;;;;;5029200;28;20380;-74
2023/04/16 11:41:54;;;;;;;8.80;8.10;;;19.80;90.50;;;;;;5030419;28;20041;-74
2023/04/16 11:44:22;;;;;;;8.93;8.32;;;19.60;90.80;;;;;;5031081;28;20040;-74
2023/04/16 11:46:49;;;;;;;9.52;8.50;;;19.20;90.60;;;;;;5029542;28;20030;-74
2023/04/16 11:49:18;;;;;;;10.65;8.82;;;19.40;92.70;;;;;;5030083;28;20025;-75
2023/04/16 11:51:45;;;;;;;9.20;8.45;;;19.60;91.00;;;;;;5031070;28;20049;-75
2023/04/16 11:54:22;;;;;;;9.60;8.80;;;19.40;90.60;;;;;;5030684;28;20040;-75
2023/04/16 11:56:49;;;;;;;10.25;9.43;;;19.60;91.00;;;;;;5029461;28;20400;-74
2023/04/16 11:59:16;;;;;;;9.95;9.15;;;19.50;90.50;;;;;;5031100;28;20484;-74
2023/04/16 12:01:47;;;;;;;9.65;8.95;;;19.70;91.60;;;;;;5029356;28;20042;-74
2023/04/16 12:04:14;;;;;;;10.55;9.65;;;20.00;89.90;;;;;;5009100;28;20545;-75
2023/04/16 12:07:06;;;;;;;10.20;9.50;;;20.00;89.30;;;;;;4994825;28;20029;-74
2023/04/16 12:09:35;;;;;;;9.63;8.88;;;19.80;87.00;;;;;;5010119;28;20049;-74
2023/04/16 12:12:02;;;;;;;9.27;8.48;;;19.00;86.30;;;;;;5032207;28;20028;-74
2023/04/16 12:14:28;;;;;;;10.05;9.05;;;18.90;87.70;;;;;;5030570;28;20041;-74
2023/04/16 12:16:55;;;;;;;10.43;9.63;;;19.00;89.10;;;;;;5030868;28;20392;-74
2023/04/16 12:19:21;;;;;;;11.55;9.85;;;19.10;88.80;;;;;;5028997;28;20041;-74
2023/04/16 12:21:48;;;;;;;10.32;9.32;;;18.80;89.10;;;;;;5013619;28;20041;-74
2023/04/16 12:24:22;;;;;;;10.30;9.32;;;18.80;90.10;;;;;;5030355;28;20183;-74
2023/04/16 12:26:56;;;;;;;10.10;9.20;;;18.80;90.70;;;;;;5030061;28;20028;-74
2023/04/16 12:29:24;;;;;;;9.88;9.07;;;19.00;90.70;;;;;;5029674;28;20040;-74
2023/04/16 12:31:51;;;;;;;10.60;9.75;;;19.00;91.00;;;;;;5030044;28;20472;-74
2023/04/16 12:34:17;;;;;;;10.05;9.25;;;18.80;90.30;;;;;;5030975;28;20040;-74
2023/04/16 12:36:44;;;;;;;11.45;9.45;;;19.10;90.90;;;;;;5029806;28;20030;-75